Aeroporto :
LOGIN :

Iscrizione | Disclaimer

   EN    FR    IT 

 










Sommario :    VFR   VFR Marginale   IFR   IFR Intensivo   IFR Molto Intensivo
Visibilità : 
Base nubi : 
>= 8 km
>= 3000ft
5 / 8 km
1000 / 3000 ft
1500m / 5 km
500 / 1000 ft
800 / 1500m
200 / 500 ft
< 800m
< 200 ft
Simboli :   Temporali  Nebbia  Neve Forte  Precipitazioni Forti  Vento > 20 kt
SIGMETs :   Varie  Temporali  Ghiacco  Turbolenza  Onda orograficha  Ceneri Vulcaniche






- Altitudine del aeroporto : 788 ft
- Codice IATA : DCM


LFCK - Castres-Mazamet

ULTIMO METAR :
  • 270230Z AUTO 30011KT 9999 BKN009 OVC020 08/07 Q1013

METARs OBSOLETI :
  • 270200Z AUTO 30011KT 9999 BKN009 OVC014 08/07 Q1014
  • 270130Z AUTO 31011KT 9999 OVC011 08/07 Q1014
  • 270100Z AUTO 31010KT 9999 OVC010 08/07 Q1014
  • 270030Z AUTO 30012KT 9999 OVC011 08/08 Q1013
  • 270000Z AUTO 30012KT 9999 BKN008/// OVC016/// ///TCU 09/08 Q1013

TAF TAF LFCK
Valido dal 26 a 18 ore il 27 a 03 ore UTC


261700Z 2618/2703 VRB03KT 4000 -RA SCT008 BKN015
TEMPO 2618/2620 2000 RA OVC004
BECMG 2621/2623 29010KT 9999 NSW BKN011



MetMap, La meteo Aeronautica in un colpo d'occhio ! - Copyright ORBIFLY Dicembre 2007 - Disclaimer

ORBIFLY MET'MAP TEAM :

Programmazione e sviluppo : Alexandra Zaïnal
Concezione : Baudouin d'Aumeries
Aiuto per la programmazione : Marc-Olivier Méhu
Supporto tecnico e logistico : Manuel Goepfert
Aiuto per la traduzione : Arnaldo La Scala

Contatto : metmap@orbifly.com




FONTI E CREDITI :

   NOAA